Time;durP1;ratioP1;P1;durP2;ratioP2;P2;SDS_P1;SDS_P2;PMS_P1;PMS_P2;Temp;Humidity;BMP_temperature;BMP_pressure;BME280_temperature;BME280_humidity;BME280_pressure;Samples;Min_cycle;Max_cycle;Signal;HPM_P1;HPM_P2
2021/06/09 00:00:10;;;;;;;10.73;6.25;;;20.30;72.40;;;;;;5051426;28;20032;-83
2021/06/09 00:02:36;;;;;;;10.35;6.07;;;20.30;72.40;;;;;;5050744;28;20088;-83
2021/06/09 00:05:03;;;;;;;9.85;5.65;;;20.20;72.50;;;;;;5051465;28;20025;-84
2021/06/09 00:07:29;;;;;;;10.52;6.47;;;20.20;72.60;;;;;;5064328;28;20092;-83
2021/06/09 00:09:55;;;;;;;9.30;5.60;;;20.20;72.60;;;;;;5056596;28;20467;-81
2021/06/09 00:12:21;;;;;;;10.88;5.65;;;20.20;72.60;;;;;;5053332;28;20032;-83
2021/06/09 00:14:46;;;;;;;9.05;5.65;;;20.20;72.70;;;;;;5050502;28;20075;-84
2021/06/09 00:17:12;;;;;;;10.13;5.25;;;20.10;72.70;;;;;;5051270;28;20024;-84
2021/06/09 00:19:38;;;;;;;9.05;5.60;;;20.10;72.70;;;;;;5051853;28;20364;-83
2021/06/09 00:22:04;;;;;;;10.00;5.63;;;20.10;72.80;;;;;;5051261;28;20435;-84
2021/06/09 00:24:30;;;;;;;10.02;5.97;;;20.10;73.00;;;;;;5052014;28;20025;-84
2021/06/09 00:26:56;;;;;;;8.23;5.43;;;20.10;73.10;;;;;;5050914;28;20108;-79
2021/06/09 00:29:22;;;;;;;8.55;5.40;;;20.00;73.70;;;;;;5052004;28;20016;-85
2021/06/09 00:31:49;;;;;;;11.35;5.75;;;20.00;73.90;;;;;;5050103;28;20051;-83
2021/06/09 00:34:15;;;;;;;10.38;6.18;;;20.00;73.50;;;;;;5052300;28;20460;-83
2021/06/09 00:36:40;;;;;;;8.32;5.57;;;20.00;73.80;;;;;;5055224;28;20028;-84
2021/06/09 00:39:06;;;;;;;9.88;6.20;;;19.90;74.10;;;;;;5056090;28;20445;-84
2021/06/09 00:41:35;;;;;;;9.52;5.93;;;19.90;74.20;;;;;;5057125;28;20025;-83
2021/06/09 00:44:02;;;;;;;10.20;6.32;;;19.90;74.40;;;;;;5054561;28;20398;-83
2021/06/09 00:46:37;;;;;;;11.35;5.95;;;19.90;74.50;;;;;;5053808;28;20032;-84
2021/06/09 00:49:05;;;;;;;9.85;6.03;;;19.90;74.50;;;;;;5053073;28;20028;-84
2021/06/09 00:51:31;;;;;;;10.63;6.53;;;19.90;74.50;;;;;;5053678;28;20461;-84
2021/06/09 00:54:14;;;;;;;10.32;5.72;;;19.90;74.70;;;;;;5053574;28;20457;-83
2021/06/09 00:56:41;;;;;;;9.23;6.03;;;19.80;74.70;;;;;;5055452;28;20029;-83
2021/06/09 00:59:07;;;;;;;9.90;5.88;;;19.80;74.70;;;;;;5054341;28;20535;-84
2021/06/09 01:01:33;;;;;;;10.25;6.00;;;19.80;74.50;;;;;;5053715;28;20052;-84
2021/06/09 01:03:59;;;;;;;9.90;5.85;;;19.80;74.80;;;;;;5054312;28;20025;-81
2021/06/09 01:06:26;;;;;;;10.45;6.15;;;19.80;74.80;;;;;;5054853;28;20639;-84
2021/06/09 01:08:52;;;;;;;11.25;5.95;;;19.70;74.70;;;;;;5053395;28;20020;-84
2021/06/09 01:11:23;;;;;;;10.43;6.20;;;19.70;74.80;;;;;;5054099;28;20047;-84
2021/06/09 01:13:50;;;;;;;9.45;6.00;;;19.70;74.90;;;;;;5055286;28;20031;-83
2021/06/09 01:16:17;;;;;;;12.13;6.57;;;19.70;75.00;;;;;;5052851;28;20024;-84
2021/06/09 01:18:43;;;;;;;10.38;6.03;;;19.70;75.40;;;;;;5054392;28;20451;-84
2021/06/09 01:21:09;;;;;;;10.38;6.28;;;19.60;75.30;;;;;;5052885;28;20031;-83
2021/06/09 01:23:36;;;;;;;12.93;6.75;;;19.60;75.50;;;;;;5053433;28;20040;-84
2021/06/09 01:26:03;;;;;;;12.25;6.38;;;19.60;75.60;;;;;;5058009;28;20032;-80
2021/06/09 01:28:28;;;;;;;9.57;5.65;;;19.60;75.50;;;;;;5067797;28;20078;-85
2021/06/09 01:30:55;;;;;;;11.82;6.60;;;19.60;75.50;;;;;;5053274;28;20493;-83
2021/06/09 01:33:21;;;;;;;10.00;6.05;;;19.60;75.40;;;;;;5053527;28;20323;-83
2021/06/09 01:35:50;;;;;;;9.95;5.82;;;19.60;75.50;;;;;;5054256;28;20069;-83
2021/06/09 01:38:16;;;;;;;10.00;6.15;;;19.50;75.70;;;;;;5052267;28;20021;-84
2021/06/09 01:40:42;;;;;;;10.98;6.90;;;19.50;75.80;;;;;;5054134;28;20044;-83
2021/06/09 01:43:08;;;;;;;11.93;6.72;;;19.50;75.90;;;;;;5052208;28;20021;-83
2021/06/09 01:45:36;;;;;;;10.65;6.25;;;19.50;76.20;;;;;;5053791;28;20024;-83
2021/06/09 01:48:03;;;;;;;12.15;6.13;;;19.50;76.50;;;;;;5053502;28;20070;-79
2021/06/09 01:50:29;;;;;;;12.57;6.30;;;19.50;76.70;;;;;;5054734;28;20056;-83
2021/06/09 01:52:56;;;;;;;12.07;7.00;;;19.50;76.80;;;;;;5053230;28;20052;-84
2021/06/09 01:55:24;;;;;;;12.23;7.28;;;19.40;77.00;;;;;;5052102;28;20075;-83
2021/06/09 01:57:51;;;;;;;11.88;7.43;;;19.40;77.20;;;;;;5054442;28;20025;-85
2021/06/09 02:00:25;;;;;;;14.45;7.72;;;19.40;77.80;;;;;;5053751;28;20033;-83
2021/06/09 02:02:53;;;;;;;11.38;7.05;;;19.40;77.20;;;;;;5053975;28;20135;-84
2021/06/09 02:05:19;;;;;;;12.68;6.40;;;19.40;77.30;;;;;;5051745;28;20017;-84
2021/06/09 02:07:45;;;;;;;11.25;6.57;;;19.40;77.50;;;;;;5053437;28;20097;-83
2021/06/09 02:10:14;;;;;;;11.35;6.60;;;19.40;77.70;;;;;;5052924;28;20433;-84
2021/06/09 02:12:45;;;;;;;13.98;7.90;;;19.30;77.80;;;;;;5053673;28;20097;-84
2021/06/09 02:15:12;;;;;;;10.98;6.85;;;19.40;77.80;;;;;;5051841;28;20017;-83
2021/06/09 02:17:41;;;;;;;12.10;6.90;;;19.30;77.90;;;;;;5050569;28;20017;-84
2021/06/09 02:20:11;;;;;;;12.30;6.78;;;19.30;78.20;;;;;;5032728;28;20021;-82
2021/06/09 02:22:37;;;;;;;13.93;7.28;;;19.30;78.40;;;;;;5033623;28;20481;-84
2021/06/09 02:25:06;;;;;;;12.05;6.93;;;19.30;78.70;;;;;;5031945;28;20022;-83
2021/06/09 02:27:36;;;;;;;12.15;7.53;;;19.20;78.90;;;;;;5033675;28;20101;-83
2021/06/09 02:30:04;;;;;;;11.02;6.68;;;19.20;79.20;;;;;;5032182;28;20017;-84
2021/06/09 02:32:30;;;;;;;12.52;7.70;;;19.20;79.30;;;;;;5033705;28;20068;-83
2021/06/09 02:34:56;;;;;;;13.23;7.03;;;19.20;79.30;;;;;;5034279;28;20370;-83
2021/06/09 02:37:22;;;;;;;12.65;7.03;;;19.20;79.20;;;;;;5033060;28;20374;-83
2021/06/09 02:39:48;;;;;;;12.32;7.28;;;19.20;79.40;;;;;;5031999;28;20104;-83
2021/06/09 02:42:23;;;;;;;12.35;7.25;;;19.20;79.50;;;;;;5033277;28;20025;-83
2021/06/09 02:44:48;;;;;;;12.77;8.07;;;19.10;79.40;;;;;;5042761;28;20369;-82
2021/06/09 02:47:17;;;;;;;12.75;7.45;;;19.10;79.40;;;;;;5036759;28;20096;-83
2021/06/09 02:49:45;;;;;;;12.98;7.45;;;19.10;79.60;;;;;;5033112;28;20478;-84
2021/06/09 02:52:17;;;;;;;12.10;7.43;;;19.10;79.60;;;;;;5030995;28;20366;-83
2021/06/09 02:55:02;;;;;;;13.85;6.82;;;19.00;80.30;;;;;;5033093;28;20017;-84
2021/06/09 02:57:33;;;;;;;15.57;8.18;;;19.10;79.80;;;;;;5030331;28;20013;-83
2021/06/09 03:00:13;;;;;;;11.55;6.63;;;19.10;80.00;;;;;;5032866;28;20075;-83
2021/06/09 03:02:58;;;;;;;13.73;7.93;;;19.00;80.20;;;;;;5032957;28;20067;-84
2021/06/09 03:05:29;;;;;;;12.57;7.78;;;18.90;80.20;;;;;;5031921;28;20328;-82
2021/06/09 03:07:58;;;;;;;;;;;19.00;80.20;;;;;;5032273;28;20108;-83
2021/06/09 03:10:52;;;;;;;13.10;7.70;;;18.90;80.00;;;;;;5030385;28;19909;-84
2021/06/09 03:13:28;;;;;;;12.75;7.75;;;19.00;80.10;;;;;;5031965;28;20024;-83
2021/06/09 03:16:02;;;;;;;14.50;8.48;;;18.90;80.10;;;;;;5031798;28;20466;-82
2021/06/09 03:18:35;;;;;;;14.32;8.13;;;18.90;80.40;;;;;;5032177;28;20071;-84
2021/06/09 03:21:11;;;;;;;12.98;7.93;;;18.90;80.50;;;;;;5031314;28;20028;-84
2021/06/09 03:23:45;;;;;;;15.25;8.15;;;18.90;80.50;;;;;;5031442;28;20112;-82
2021/06/09 03:26:45;;;;;;;14.23;7.63;;;18.90;80.50;;;;;;5030518;28;20339;-83
2021/06/09 03:29:48;;;;;;;15.27;9.00;;;18.90;80.70;;;;;;5031923;28;20025;-83
2021/06/09 03:32:32;;;;;;;13.43;7.47;;;18.90;80.90;;;;;;5029998;28;20300;-83
2021/06/09 03:35:08;;;;;;;13.90;8.38;;;18.90;81.00;;;;;;5032049;28;20481;-85
2021/06/09 03:37:40;;;;;;;14.65;8.45;;;18.80;81.10;;;;;;5032100;28;20017;-83
2021/06/09 03:40:09;;;;;;;15.98;8.65;;;18.80;81.30;;;;;;5032475;28;20519;-84
2021/06/09 03:42:38;;;;;;;13.25;8.70;;;18.80;81.30;;;;;;5031972;28;20022;-82
2021/06/09 03:45:06;;;;;;;14.10;8.63;;;18.80;81.50;;;;;;5032241;28;20035;-84
2021/06/09 03:47:32;;;;;;;15.45;8.45;;;18.80;81.60;;;;;;5032008;28;20068;-82
2021/06/09 03:50:00;;;;;;;12.90;7.60;;;18.80;81.70;;;;;;5031754;28;20025;-83
2021/06/09 03:52:26;;;;;;;15.95;8.70;;;18.80;82.40;;;;;;5030194;28;20083;-82
2021/06/09 03:54:58;;;;;;;13.85;8.10;;;18.80;81.80;;;;;;5032208;28;20026;-83
2021/06/09 03:57:25;;;;;;;13.48;7.72;;;18.80;81.90;;;;;;5030629;28;20516;-82
2021/06/09 03:59:54;;;;;;;13.88;8.75;;;18.80;81.90;;;;;;5039511;28;20457;-81
2021/06/09 04:02:22;;;;;;;14.07;8.35;;;18.80;81.90;;;;;;5054962;28;20414;-81
2021/06/09 04:04:53;;;;;;;15.77;9.32;;;18.80;81.90;;;;;;5053136;28;20104;-82
2021/06/09 04:07:21;;;;;;;16.08;8.63;;;18.80;82.10;;;;;;5051765;28;20361;-84
2021/06/09 04:09:48;;;;;;;15.88;9.30;;;18.80;82.20;;;;;;5055201;28;20017;-83
2021/06/09 04:12:14;;;;;;;14.55;8.23;;;18.80;82.30;;;;;;5053328;28;20119;-82
2021/06/09 04:14:46;;;;;;;13.63;8.38;;;18.80;82.30;;;;;;5053922;28;20437;-83
2021/06/09 04:17:14;;;;;;;13.50;8.20;;;18.80;83.30;;;;;;5034636;28;20369;-83
2021/06/09 04:19:45;;;;;;;16.15;8.88;;;18.80;82.60;;;;;;5037220;28;20018;-82
2021/06/09 04:22:12;;;;;;;22.92;13.60;;;18.80;82.80;;;;;;5054898;28;20440;-82
2021/06/09 04:24:39;;;;;;;21.27;12.30;;;18.80;82.70;;;;;;5054696;28;20036;-81
2021/06/09 04:27:09;;;;;;;18.02;10.00;;;18.80;82.80;;;;;;5055330;28;20020;-83
2021/06/09 04:29:36;;;;;;;15.60;9.87;;;18.80;83.00;;;;;;5054616;28;20075;-83
2021/06/09 04:32:05;;;;;;;15.88;9.48;;;18.80;83.00;;;;;;5053486;28;20060;-83
2021/06/09 04:34:55;;;;;;;15.38;9.52;;;18.80;83.10;;;;;;5053603;28;20461;-82
2021/06/09 04:37:24;;;;;;;16.90;9.38;;;18.80;83.30;;;;;;5054343;28;20476;-83
2021/06/09 04:39:52;;;;;;;16.05;9.30;;;18.80;83.20;;;;;;5052513;28;20100;-79
2021/06/09 04:42:19;;;;;;;15.40;8.73;;;18.90;83.40;;;;;;5051967;28;20025;-82
2021/06/09 04:44:45;;;;;;;15.60;9.73;;;18.90;83.40;;;;;;5053036;28;20021;-81
2021/06/09 04:47:14;;;;;;;16.77;9.15;;;18.90;83.40;;;;;;5052709;28;20071;-83
2021/06/09 04:49:42;;;;;;;14.77;9.38;;;18.90;83.40;;;;;;5050671;28;20021;-82
2021/06/09 04:52:09;;;;;;;17.58;10.55;;;18.90;83.40;;;;;;5051137;28;20032;-82
2021/06/09 04:54:36;;;;;;;18.10;10.30;;;18.90;83.40;;;;;;5051721;28;20116;-83
2021/06/09 04:57:04;;;;;;;18.77;10.85;;;19.00;83.20;;;;;;5052373;28;20400;-81
2021/06/09 04:59:29;;;;;;;17.50;10.57;;;19.00;83.30;;;;;;5051764;28;20017;-83
2021/06/09 05:01:55;;;;;;;16.50;10.18;;;19.00;83.20;;;;;;5037514;28;20029;-83
2021/06/09 05:04:21;;;;;;;16.65;9.88;;;19.00;83.20;;;;;;5031668;28;20029;-83
2021/06/09 05:06:46;;;;;;;16.73;10.35;;;19.10;83.30;;;;;;5032467;28;20025;-74
2021/06/09 05:09:12;;;;;;;16.38;9.52;;;19.10;83.20;;;;;;5032851;28;20159;-74
2021/06/09 05:11:53;;;;;;;16.90;9.88;;;19.20;83.40;;;;;;5033715;28;20034;-75
2021/06/09 05:14:32;;;;;;;18.45;9.98;;;19.20;83.60;;;;;;5034230;28;20095;-76
2021/06/09 05:16:59;;;;;;;18.88;10.48;;;19.20;83.40;;;;;;5034273;28;20079;-74
2021/06/09 05:19:28;;;;;;;18.98;11.02;;;19.20;83.40;;;;;;5031744;28;20013;-75
2021/06/09 05:22:21;;;;;;;18.08;10.57;;;19.20;83.40;;;;;;5034245;28;20025;-74
2021/06/09 05:24:49;;;;;;;20.23;11.25;;;19.30;83.40;;;;;;5032704;28;20424;-74
2021/06/09 05:27:19;;;;;;;18.55;10.80;;;19.30;83.40;;;;;;5034223;28;20014;-75
2021/06/09 05:29:45;;;;;;;20.23;10.90;;;19.30;83.40;;;;;;5032992;28;20021;-74
2021/06/09 05:32:11;;;;;;;18.10;11.27;;;19.30;83.20;;;;;;5033641;28;20056;-75
2021/06/09 05:34:39;;;;;;;18.67;10.95;;;19.40;83.20;;;;;;5033525;28;20465;-74
2021/06/09 05:37:08;;;;;;;20.70;11.48;;;19.40;83.20;;;;;;5034171;28;20026;-75
2021/06/09 05:39:37;;;;;;;21.27;12.20;;;19.40;83.30;;;;;;5033459;28;20018;-74
2021/06/09 05:42:06;;;;;;;18.38;11.02;;;19.50;83.40;;;;;;5033923;28;20029;-74
2021/06/09 05:44:32;;;;;;;18.05;10.85;;;19.50;83.50;;;;;;5031882;28;20021;-74
2021/06/09 05:47:00;;;;;;;22.23;13.27;;;19.60;83.50;;;;;;5033885;28;20021;-74
2021/06/09 05:49:26;;;;;;;21.90;11.98;;;19.60;83.50;;;;;;5031948;28;20049;-75
2021/06/09 05:51:52;;;;;;;21.73;12.30;;;19.60;83.50;;;;;;5033693;28;20110;-74
2021/06/09 05:54:21;;;;;;;18.83;11.35;;;19.60;83.50;;;;;;5033636;28;20032;-75
2021/06/09 05:56:47;;;;;;;19.80;11.30;;;19.70;83.30;;;;;;5033374;28;20102;-75
2021/06/09 05:59:14;;;;;;;21.02;12.15;;;19.70;83.20;;;;;;5033554;28;20123;-75
2021/06/09 06:01:41;;;;;;;20.42;11.45;;;19.70;83.20;;;;;;5032689;28;20044;-75
2021/06/09 06:04:08;;;;;;;21.40;12.05;;;19.80;83.10;;;;;;5033128;28;20369;-74
2021/06/09 06:06:34;;;;;;;20.92;11.60;;;19.90;83.00;;;;;;5032865;28;20438;-74
2021/06/09 06:09:00;;;;;;;23.40;12.77;;;19.90;83.00;;;;;;5033316;28;20028;-75
2021/06/09 06:11:25;;;;;;;26.70;13.13;;;20.00;83.10;;;;;;5031245;28;20029;-74
2021/06/09 06:13:52;;;;;;;23.10;13.60;;;20.00;82.90;;;;;;5033270;28;20036;-75
2021/06/09 06:16:19;;;;;;;20.80;13.23;;;20.00;82.90;;;;;;5031984;28;20136;-74
2021/06/09 06:18:47;;;;;;;22.83;13.50;;;20.10;82.70;;;;;;5032533;28;20021;-75
2021/06/09 06:21:14;;;;;;;26.95;13.95;;;20.20;82.70;;;;;;5033106;28;20026;-74
2021/06/09 06:23:41;;;;;;;23.90;14.52;;;20.20;82.50;;;;;;5032703;28;20104;-74
2021/06/09 06:26:08;;;;;;;20.42;12.77;;;20.30;82.50;;;;;;5031913;28;20461;-74
2021/06/09 06:28:34;;;;;;;22.90;12.95;;;20.30;82.30;;;;;;5032661;28;20022;-75
2021/06/09 06:31:01;;;;;;;22.52;13.15;;;20.30;82.10;;;;;;5032140;28;20128;-75
2021/06/09 06:33:28;;;;;;;23.95;13.57;;;20.30;82.00;;;;;;5030676;28;20195;-75
2021/06/09 06:35:59;;;;;;;26.92;14.07;;;20.30;81.90;;;;;;5032963;28;20017;-75
2021/06/09 06:38:25;;;;;;;22.27;13.02;;;20.40;82.00;;;;;;5031203;28;20017;-77
2021/06/09 06:40:51;;;;;;;24.45;13.30;;;20.40;81.90;;;;;;5033055;28;20032;-74
2021/06/09 06:43:17;;;;;;;21.67;14.02;;;20.30;81.80;;;;;;5032907;28;20022;-75
2021/06/09 06:45:43;;;;;;;27.27;14.65;;;20.40;81.70;;;;;;5032097;28;20104;-75
2021/06/09 06:48:09;;;;;;;29.50;15.50;;;20.50;81.60;;;;;;5031166;28;20013;-75
2021/06/09 06:50:37;;;;;;;22.80;13.20;;;20.50;81.40;;;;;;5031838;28;20356;-74
2021/06/09 06:53:07;;;;;;;22.40;13.20;;;20.60;81.30;;;;;;5032709;28;20056;-74
2021/06/09 06:55:33;;;;;;;24.55;14.43;;;20.60;81.00;;;;;;5032313;28;20490;-75
2021/06/09 06:57:59;;;;;;;24.70;14.00;;;20.60;80.70;;;;;;5032624;28;20461;-75
2021/06/09 07:00:25;;;;;;;23.02;13.40;;;20.70;80.70;;;;;;5032526;28;20027;-74
2021/06/09 07:02:59;;;;;;;23.38;14.75;;;20.70;80.60;;;;;;5032205;28;20029;-75
2021/06/09 07:05:28;;;;;;;22.33;14.38;;;20.80;80.40;;;;;;5032586;28;20070;-75
2021/06/09 07:07:56;;;;;;;21.52;12.82;;;20.90;80.20;;;;;;5032306;28;20023;-75
2021/06/09 07:10:22;;;;;;;22.50;13.38;;;21.00;80.10;;;;;;5032414;28;20029;-74
2021/06/09 07:12:49;;;;;;;23.65;13.85;;;21.00;79.90;;;;;;5030276;28;20013;-75
2021/06/09 07:15:18;;;;;;;23.55;14.18;;;21.10;79.90;;;;;;5032221;28;20017;-75
2021/06/09 07:17:47;;;;;;;23.83;14.02;;;21.20;79.60;;;;;;5031998;28;20104;-75
2021/06/09 07:20:14;;;;;;;24.90;14.70;;;21.20;79.30;;;;;;5031813;28;20026;-74
2021/06/09 07:22:41;;;;;;;25.13;14.05;;;21.30;79.10;;;;;;5031540;28;20018;-75
2021/06/09 07:25:09;;;;;;;26.55;16.55;;;21.40;78.90;;;;;;5030774;28;20116;-75
2021/06/09 07:27:36;;;;;;;24.38;13.60;;;21.40;78.60;;;;;;5031197;28;20338;-74
2021/06/09 07:30:05;;;;;;;27.15;15.60;;;21.40;78.70;;;;;;5031757;28;20019;-74
2021/06/09 07:32:34;;;;;;;26.10;15.23;;;21.50;78.40;;;;;;5029687;28;20041;-74
2021/06/09 07:35:00;;;;;;;22.67;14.43;;;21.60;78.30;;;;;;5032014;28;20075;-75
2021/06/09 07:37:28;;;;;;;22.60;15.27;;;21.60;78.10;;;;;;5032033;28;20017;-74
2021/06/09 07:39:58;;;;;;;20.38;13.60;;;21.70;78.10;;;;;;5031711;28;20076;-75
2021/06/09 07:42:27;;;;;;;21.05;13.38;;;21.70;77.70;;;;;;5031890;28;20013;-75
2021/06/09 07:44:59;;;;;;;19.35;12.55;;;21.70;77.50;;;;;;5031363;28;20041;-75
2021/06/09 07:47:27;;;;;;;19.80;12.90;;;21.70;77.20;;;;;;5030707;28;20047;-74
2021/06/09 07:49:54;;;;;;;19.67;12.68;;;21.70;77.40;;;;;;5029864;28;20014;-74
2021/06/09 07:52:21;;;;;;;14.77;10.32;;;21.70;77.40;;;;;;5031410;28;20413;-74
2021/06/09 07:54:49;;;;;;;19.38;11.88;;;21.70;77.20;;;;;;5031378;28;20068;-75
2021/06/09 07:57:15;;;;;;;21.25;12.23;;;21.80;77.10;;;;;;5031868;28;20523;-75
2021/06/09 07:59:43;;;;;;;20.75;13.43;;;21.80;76.90;;;;;;5031175;28;20018;-74
2021/06/09 08:02:11;;;;;;;16.48;11.38;;;21.80;76.70;;;;;;5031804;28;20029;-76
2021/06/09 08:04:37;;;;;;;20.42;13.25;;;21.90;76.60;;;;;;5031086;28;20469;-74
2021/06/09 08:07:03;;;;;;;19.63;12.57;;;21.90;76.60;;;;;;5031634;28;20021;-75
2021/06/09 08:09:30;;;;;;;19.20;12.50;;;21.90;76.50;;;;;;5031597;28;20527;-75
2021/06/09 08:11:59;;;;;;;20.02;11.85;;;21.90;76.40;;;;;;5031217;28;20029;-75
2021/06/09 08:14:25;;;;;;;19.83;12.73;;;22.00;76.10;;;;;;5031579;28;20014;-75
2021/06/09 08:16:51;;;;;;;18.65;12.52;;;22.00;76.00;;;;;;5029630;28;20067;-75
2021/06/09 08:19:16;;;;;;;29.27;19.33;;;22.00;75.70;;;;;;5030916;28;20112;-75
2021/06/09 08:21:42;;;;;;;20.88;13.50;;;22.10;74.60;;;;;;5029216;28;20022;-74
2021/06/09 08:24:08;;;;;;;22.10;13.85;;;22.10;74.60;;;;;;5031175;28;20040;-74
2021/06/09 08:26:35;;;;;;;22.77;12.77;;;22.10;74.50;;;;;;5030719;28;20017;-76
2021/06/09 08:29:01;;;;;;;21.15;12.90;;;22.10;75.10;;;;;;5031189;28;20096;-75
2021/06/09 08:31:29;;;;;;;18.35;11.95;;;22.10;75.00;;;;;;5031323;28;20037;-75
2021/06/09 08:33:57;;;;;;;18.30;12.38;;;22.20;75.20;;;;;;5030922;28;20037;-75
2021/06/09 08:36:24;;;;;;;19.00;11.98;;;22.30;74.30;;;;;;5031651;28;20101;-75
2021/06/09 08:38:54;;;;;;;17.45;11.70;;;22.30;74.10;;;;;;5030849;28;20021;-75
2021/06/09 08:41:27;;;;;;;16.63;11.18;;;22.40;74.40;;;;;;5030247;28;20372;-75
2021/06/09 08:43:53;;;;;;;21.10;13.95;;;22.40;73.90;;;;;;5029483;28;20013;-74
2021/06/09 08:46:19;;;;;;;19.98;13.40;;;22.40;73.40;;;;;;5030174;28;20013;-75
2021/06/09 08:48:46;;;;;;;20.30;12.50;;;22.40;72.90;;;;;;5030603;28;20376;-76
2021/06/09 08:51:16;;;;;;;17.27;10.25;;;22.50;72.60;;;;;;5031320;28;20117;-75
2021/06/09 08:53:47;;;;;;;15.27;9.68;;;22.50;71.90;;;;;;5030596;28;20079;-75
2021/06/09 08:56:14;;;;;;;15.38;10.68;;;22.60;71.40;;;;;;5034836;28;20105;-76
2021/06/09 08:58:41;;;;;;;14.35;9.18;;;22.60;70.20;;;;;;5033648;28;20014;-75
2021/06/09 09:01:08;;;;;;;12.48;8.50;;;22.60;70.20;;;;;;5034582;28;20633;-75
2021/06/09 09:03:38;;;;;;;14.60;8.77;;;22.70;69.80;;;;;;5034586;28;20026;-75
2021/06/09 09:06:04;;;;;;;15.20;9.55;;;22.80;69.70;;;;;;5034597;28;20021;-75
2021/06/09 09:08:30;;;;;;;15.93;9.45;;;22.80;69.00;;;;;;5034388;28;20036;-75
2021/06/09 09:10:56;;;;;;;13.25;9.45;;;22.90;68.10;;;;;;5032254;28;20128;-75
2021/06/09 09:13:24;;;;;;;13.90;8.02;;;22.90;68.00;;;;;;5034147;28;20029;-74
2021/06/09 09:15:49;;;;;;;14.90;9.13;;;23.00;67.70;;;;;;5032324;28;20021;-75
2021/06/09 09:18:15;;;;;;;14.27;9.93;;;23.00;67.50;;;;;;5034020;28;20465;-75
2021/06/09 09:20:43;;;;;;;17.77;11.00;;;23.00;67.80;;;;;;5033629;28;20163;-74
2021/06/09 09:23:30;;;;;;;16.63;10.15;;;23.10;67.70;;;;;;5034268;28;20025;-75
2021/06/09 09:25:58;;;;;;;18.42;10.98;;;23.10;67.40;;;;;;5032109;28;20057;-75
2021/06/09 09:28:30;;;;;;;18.92;12.52;;;23.10;67.20;;;;;;5033925;28;20122;-75
2021/06/09 09:31:11;;;;;;;20.23;10.88;;;23.20;66.90;;;;;;5033456;28;20048;-73
2021/06/09 09:33:37;;;;;;;16.48;9.80;;;23.20;66.90;;;;;;5033866;28;20053;-79
2021/06/09 09:36:27;;;;;;;14.35;8.95;;;23.20;67.40;;;;;;5033971;28;20013;-75
2021/06/09 09:38:54;;;;;;;13.85;7.75;;;23.30;66.90;;;;;;5031990;28;20025;-75
2021/06/09 09:41:21;;;;;;;10.98;7.60;;;23.30;66.90;;;;;;5032342;28;20078;-75
2021/06/09 09:43:52;;;;;;;10.80;6.90;;;23.40;66.80;;;;;;5033093;28;20554;-75
2021/06/09 09:46:18;;;;;;;13.38;7.93;;;23.40;65.80;;;;;;5033831;28;20473;-74
2021/06/09 09:49:00;;;;;;;11.55;6.88;;;23.40;66.00;;;;;;5033130;28;20018;-75
2021/06/09 09:51:29;;;;;;;13.65;8.43;;;23.50;65.20;;;;;;5032124;28;20037;-75
2021/06/09 09:54:00;;;;;;;12.68;7.50;;;23.40;64.80;;;;;;5031736;28;20164;-74
2021/06/09 09:56:28;;;;;;;14.25;7.57;;;23.50;64.70;;;;;;5033804;28;20164;-75
2021/06/09 09:59:23;;;;;;;12.00;7.93;;;23.50;64.20;;;;;;5031510;28;20350;-74
2021/06/09 10:01:53;;;;;;;10.02;6.78;;;23.60;64.10;;;;;;5031392;28;20365;-75
2021/06/09 10:04:29;;;;;;;13.77;7.55;;;23.60;64.20;;;;;;5033479;28;20053;-74
2021/06/09 10:06:55;;;;;;;16.25;9.70;;;23.70;63.30;;;;;;5032772;28;20025;-74
2021/06/09 10:09:47;;;;;;;11.30;7.32;;;23.80;63.00;;;;;;5033276;28;20092;-76
2021/06/09 10:12:15;;;;;;;12.90;7.38;;;23.80;62.90;;;;;;5030890;28;20378;-74
2021/06/09 10:14:50;;;;;;;10.32;7.30;;;23.80;62.60;;;;;;5032692;28;20438;-76
2021/06/09 10:17:22;;;;;;;11.63;6.47;;;23.80;62.20;;;;;;5032029;28;20041;-75
2021/06/09 10:19:58;;;;;;;12.20;7.47;;;23.80;62.20;;;;;;5031269;28;20449;-75
2021/06/09 10:22:35;;;;;;;12.55;7.25;;;23.90;61.90;;;;;;5031581;28;20037;-75
2021/06/09 10:25:07;;;;;;;12.73;7.38;;;24.00;62.00;;;;;;5031403;28;20343;-75
2021/06/09 10:27:53;;;;;;;10.13;6.55;;;24.00;60.90;;;;;;5031965;28;20021;-75
2021/06/09 10:30:29;;;;;;;14.20;8.00;;;24.10;60.00;;;;;;5031877;28;20048;-75
2021/06/09 10:32:59;;;;;;;10.25;6.75;;;24.10;59.30;;;;;;5032355;28;20041;-75
2021/06/09 10:35:34;;;;;;;10.73;6.72;;;24.20;58.80;;;;;;5033015;28;20022;-75
2021/06/09 10:38:00;;;;;;;9.75;6.93;;;24.10;58.00;;;;;;5032298;28;20024;-76
2021/06/09 10:40:29;;;;;;;11.18;7.20;;;24.10;57.90;;;;;;5032728;28;20017;-75
2021/06/09 10:42:57;;;;;;;9.88;6.47;;;24.10;58.20;;;;;;5030740;28;20024;-74
2021/06/09 10:45:23;;;;;;;10.30;6.07;;;24.20;58.20;;;;;;5032496;28;20078;-75
2021/06/09 10:47:56;;;;;;;8.77;5.22;;;24.20;57.70;;;;;;5031643;28;20009;-75
2021/06/09 10:50:23;;;;;;;8.00;4.90;;;24.30;56.80;;;;;;5032547;28;20032;-75
2021/06/09 10:52:50;;;;;;;8.73;5.00;;;24.40;57.00;;;;;;5031984;28;20017;-75
2021/06/09 10:55:16;;;;;;;11.50;6.65;;;24.40;56.80;;;;;;5030692;28;20064;-75
2021/06/09 10:57:42;;;;;;;10.88;6.00;;;24.40;56.40;;;;;;5031003;28;20013;-75
2021/06/09 11:00:12;;;;;;;9.98;6.00;;;24.50;57.30;;;;;;5031739;28;20445;-75
2021/06/09 11:02:39;;;;;;;10.93;6.10;;;24.60;57.40;;;;;;5031742;28;20036;-75
2021/06/09 11:05:07;;;;;;;9.85;6.47;;;24.80;57.50;;;;;;5031394;28;20021;-75
2021/06/09 11:07:45;;;;;;;10.73;6.65;;;24.90;56.40;;;;;;5032276;28;20045;-74
2021/06/09 11:10:17;;;;;;;11.27;6.60;;;25.10;56.00;;;;;;5032126;28;20408;-75
2021/06/09 11:12:49;;;;;;;14.13;8.15;;;25.10;55.90;;;;;;5032052;28;20477;-75
2021/06/09 11:15:32;;;;;;;11.85;7.65;;;25.30;55.20;;;;;;5032230;28;20025;-74
2021/06/09 11:18:00;;;;;;;15.25;8.43;;;25.30;55.50;;;;;;5029657;28;20083;-75
2021/06/09 11:20:34;;;;;;;14.35;7.72;;;25.40;55.40;;;;;;5032569;28;20087;-75
2021/06/09 11:23:09;;;;;;;13.98;7.93;;;25.50;54.90;;;;;;5031457;28;20018;-74
2021/06/09 11:25:44;;;;;;;10.68;6.65;;;25.60;54.70;;;;;;5031988;28;20017;-75
2021/06/09 11:28:11;;;;;;;12.05;7.45;;;25.60;54.60;;;;;;5030107;28;20330;-75
2021/06/09 11:30:42;;;;;;;11.82;8.18;;;25.80;54.50;;;;;;5030048;28;20037;-74
2021/06/09 11:33:10;;;;;;;12.13;6.72;;;25.80;54.00;;;;;;5030866;28;20120;-76
2021/06/09 11:35:50;;;;;;;12.20;7.93;;;26.00;54.40;;;;;;5032027;28;20025;-75
2021/06/09 11:38:22;;;;;;;9.23;6.10;;;26.00;53.50;;;;;;5032341;28;20045;-76
2021/06/09 11:40:54;;;;;;;14.18;7.60;;;26.20;53.00;;;;;;5031202;28;20030;-76
2021/06/09 11:43:23;;;;;;;10.10;6.55;;;26.20;52.40;;;;;;5031948;28;20026;-76
2021/06/09 11:46:07;;;;;;;9.93;6.75;;;26.30;52.40;;;;;;5031503;28;20010;-76
2021/06/09 11:48:33;;;;;;;12.40;7.20;;;26.40;51.90;;;;;;5030930;28;20045;-74
2021/06/09 11:51:24;;;;;;;11.40;7.68;;;26.40;51.30;;;;;;5029869;28;20537;-74
2021/06/09 11:53:53;;;;;;;7.60;4.90;;;26.40;50.40;;;;;;5031386;28;20046;-76
2021/06/09 11:56:26;;;;;;;9.95;5.78;;;26.50;51.30;;;;;;5030569;28;20025;-75
2021/06/09 11:58:58;;;;;;;11.15;7.32;;;26.60;51.60;;;;;;5031693;28;20459;-75
2021/06/09 12:01:26;;;;;;;9.48;6.00;;;26.70;51.10;;;;;;5030622;28;20025;-75
2021/06/09 12:04:20;;;;;;;11.15;7.28;;;26.80;50.70;;;;;;5030976;28;20018;-75
2021/06/09 12:06:50;;;;;;;11.38;6.97;;;26.90;50.10;;;;;;5031320;28;20025;-76
2021/06/09 12:09:18;;;;;;;11.98;7.13;;;26.80;50.30;;;;;;5031609;28;20022;-75
2021/06/09 12:11:46;;;;;;;9.43;5.90;;;26.80;50.90;;;;;;5031538;28;20025;-75
2021/06/09 12:14:20;;;;;;;12.07;7.78;;;26.90;51.20;;;;;;5031024;28;20017;-77
2021/06/09 12:16:49;;;;;;;9.95;6.55;;;27.00;50.20;;;;;;5030324;28;20014;-75
2021/06/09 12:19:25;;;;;;;8.55;6.15;;;27.10;50.00;;;;;;5030224;28;20022;-74
2021/06/09 12:21:54;;;;;;;10.75;6.43;;;27.20;50.00;;;;;;5029385;28;20022;-75
2021/06/09 12:24:20;;;;;;;9.02;6.65;;;27.30;49.60;;;;;;5031763;28;20110;-76
2021/06/09 12:26:51;;;;;;;7.22;4.88;;;27.30;48.80;;;;;;5031272;28;20104;-75
2021/06/09 12:29:21;;;;;;;9.02;4.70;;;27.30;49.20;;;;;;5030976;28;20017;-75
2021/06/09 12:31:47;;;;;;;8.50;5.40;;;27.40;49.90;;;;;;5034585;28;20266;-75
2021/06/09 12:34:31;;;;;;;8.73;5.50;;;27.50;49.30;;;;;;5034610;28;20096;-75
2021/06/09 12:37:06;;;;;;;6.20;4.50;;;27.70;48.80;;;;;;5033337;28;20013;-74
2021/06/09 12:39:32;;;;;;;7.85;4.95;;;27.70;48.70;;;;;;5035206;28;20480;-76
2021/06/09 12:41:59;;;;;;;7.97;5.60;;;27.80;48.40;;;;;;5034547;28;20029;-75
2021/06/09 12:44:27;;;;;;;8.30;4.90;;;27.80;47.60;;;;;;5033738;28;20021;-76
2021/06/09 12:47:02;;;;;;;8.85;5.28;;;27.90;47.80;;;;;;5033092;28;20453;-76